Terminal Aerodrome Forecast
Issued by NWS Louisville, KY

Home | Current Version | Previous Version | Text Only | Print | Product List | Glossary On
Versions: 1 2 3 4 5 6 7 8 9 10 11 12 13 14 15 16 17 18 19 20 21 22 23
000
FTUS43 KLMK 192331
TAFLEX
TAF
KLEX 192331Z 2000/2024 23005KT P6SM FEW050 FEW250
     FM201000 00000KT 4SM BR FEW050
      TEMPO 2010/2013 1SM BR
     FM201400 22005KT P6SM FEW050=

USA.gov is the U.S. government's official web portal to all federal, state and local government web resources and services.